sensor_id;sensor_type;location;lat;lon;timestamp;P1;durP1;ratioP1;P2;durP2;ratioP2
38037;SDS011;23843;51.320;12.340;2022-11-20T05:30:48;6.90;;;3.87;;
38037;SDS011;23843;51.320;12.340;2022-11-20T05:33:13;8.00;;;4.13;;
38037;SDS011;23843;51.320;12.340;2022-11-20T05:35:39;5.87;;;3.37;;
38037;SDS011;23843;51.320;12.340;2022-11-20T05:38:05;5.80;;;3.23;;
38037;SDS011;23843;51.320;12.340;2022-11-20T05:40:31;6.63;;;3.27;;
38037;SDS011;23843;51.320;12.340;2022-11-20T05:42:56;6.33;;;3.83;;
38037;SDS011;23843;51.320;12.340;2022-11-20T05:45:21;6.53;;;3.53;;
38037;SDS011;23843;51.320;12.340;2022-11-20T05:47:48;7.07;;;3.50;;
38037;SDS011;23843;51.320;12.340;2022-11-20T05:50:14;5.80;;;2.97;;
38037;SDS011;23843;51.320;12.340;2022-11-20T05:52:39;5.57;;;3.13;;
38037;SDS011;23843;51.320;12.340;2022-11-20T05:55:05;6.57;;;3.57;;
38037;SDS011;23843;51.320;12.340;2022-11-20T05:57:31;8.00;;;3.83;;
38037;SDS011;23843;51.320;12.340;2022-11-20T05:59:57;7.13;;;3.73;;
38037;SDS011;23843;51.320;12.340;2022-11-20T06:02:22;7.97;;;4.23;;
38037;SDS011;23843;51.320;12.340;2022-11-20T06:04:49;7.73;;;4.17;;
38037;SDS011;23843;51.320;12.340;2022-11-20T06:07:14;6.37;;;3.70;;
38037;SDS011;23843;51.320;12.340;2022-11-20T06:09:40;5.50;;;3.27;;
38037;SDS011;23843;51.320;12.340;2022-11-20T06:12:05;6.00;;;3.43;;
38037;SDS011;23843;51.320;12.340;2022-11-20T06:14:31;7.07;;;3.80;;
38037;SDS011;23843;51.320;12.340;2022-11-20T06:16:56;6.93;;;3.70;;
38037;SDS011;23843;51.320;12.340;2022-11-20T06:19:22;6.03;;;3.40;;
38037;SDS011;23843;51.320;12.340;2022-11-20T06:21:49;7.70;;;4.00;;
38037;SDS011;23843;51.320;12.340;2022-11-20T06:24:15;6.60;;;3.80;;
38037;SDS011;23843;51.320;12.340;2022-11-20T06:26:41;5.97;;;3.30;;
38037;SDS011;23843;51.320;12.340;2022-11-20T06:29:06;7.17;;;3.83;;
38037;SDS011;23843;51.320;12.340;2022-11-20T06:31:32;6.30;;;3.60;;
38037;SDS011;23843;51.320;12.340;2022-11-20T06:33:57;6.00;;;3.20;;
38037;SDS011;23843;51.320;12.340;2022-11-20T06:36:23;9.00;;;4.37;;
38037;SDS011;23843;51.320;12.340;2022-11-20T06:38:50;8.57;;;5.07;;
38037;SDS011;23843;51.320;12.340;2022-11-20T06:41:16;8.33;;;4.10;;
38037;SDS011;23843;51.320;12.340;2022-11-20T06:43:43;7.03;;;3.87;;
38037;SDS011;23843;51.320;12.340;2022-11-20T06:46:10;5.67;;;3.33;;
38037;SDS011;23843;51.320;12.340;2022-11-20T06:48:36;5.10;;;3.13;;
38037;SDS011;23843;51.320;12.340;2022-11-20T06:51:02;5.60;;;3.20;;
38037;SDS011;23843;51.320;12.340;2022-11-20T06:53:28;5.67;;;3.20;;
38037;SDS011;23843;51.320;12.340;2022-11-20T06:55:55;6.20;;;3.20;;
38037;SDS011;23843;51.320;12.340;2022-11-20T06:58:21;5.10;;;2.90;;
38037;SDS011;23843;51.320;12.340;2022-11-20T07:00:47;5.60;;;3.20;;
38037;SDS011;23843;51.320;12.340;2022-11-20T07:03:12;6.67;;;3.70;;
38037;SDS011;23843;51.320;12.340;2022-11-20T07:05:38;8.50;;;4.73;;
38037;SDS011;23843;51.320;12.340;2022-11-20T07:08:04;6.93;;;4.00;;
38037;SDS011;23843;51.320;12.340;2022-11-20T07:10:30;8.07;;;4.17;;
38037;SDS011;23843;51.320;12.340;2022-11-20T07:12:57;8.53;;;4.07;;
38037;SDS011;23843;51.320;12.340;2022-11-20T07:15:22;10.03;;;5.67;;
38037;SDS011;23843;51.320;12.340;2022-11-20T07:17:49;12.00;;;5.93;;
38037;SDS011;23843;51.320;12.340;2022-11-20T07:20:15;21.03;;;10.00;;
38037;SDS011;23843;51.320;12.340;2022-11-20T07:22:40;20.13;;;10.30;;
38037;SDS011;23843;51.320;12.340;2022-11-20T07:25:06;18.50;;;9.63;;
38037;SDS011;23843;51.320;12.340;2022-11-20T07:27:33;16.13;;;8.67;;
38037;SDS011;23843;51.320;12.340;2022-11-20T07:30:00;14.10;;;8.00;;
38037;SDS011;23843;51.320;12.340;2022-11-20T07:32:25;11.33;;;6.57;;
38037;SDS011;23843;51.320;12.340;2022-11-20T07:34:51;10.97;;;6.00;;
38037;SDS011;23843;51.320;12.340;2022-11-20T07:37:16;13.70;;;7.17;;
38037;SDS011;23843;51.320;12.340;2022-11-20T07:39:42;12.07;;;6.50;;
38037;SDS011;23843;51.320;12.340;2022-11-20T07:42:07;9.83;;;5.70;;
38037;SDS011;23843;51.320;12.340;2022-11-20T07:44:33;8.87;;;5.03;;
38037;SDS011;23843;51.320;12.340;2022-11-20T07:47:00;8.73;;;5.03;;
38037;SDS011;23843;51.320;12.340;2022-11-20T07:49:26;9.50;;;5.30;;
38037;SDS011;23843;51.320;12.340;2022-11-20T07:51:51;12.83;;;6.67;;
38037;SDS011;23843;51.320;12.340;2022-11-20T07:54:17;10.50;;;6.27;;
38037;SDS011;23843;51.320;12.340;2022-11-20T07:56:42;14.70;;;8.30;;
38037;SDS011;23843;51.320;12.340;2022-11-20T07:59:08;18.90;;;10.30;;
38037;SDS011;23843;51.320;12.340;2022-11-20T08:01:33;16.03;;;9.00;;
38037;SDS011;23843;51.320;12.340;2022-11-20T08:04:00;14.47;;;8.87;;
38037;SDS011;23843;51.320;12.340;2022-11-20T08:06:25;13.43;;;7.60;;
38037;SDS011;23843;51.320;12.340;2022-11-20T08:08:51;11.97;;;7.23;;
38037;SDS011;23843;51.320;12.340;2022-11-20T08:11:16;15.40;;;9.50;;
38037;SDS011;23843;51.320;12.340;2022-11-20T08:13:41;13.87;;;8.83;;
38037;SDS011;23843;51.320;12.340;2022-11-20T08:16:07;13.63;;;8.43;;
38037;SDS011;23843;51.320;12.340;2022-11-20T08:18:32;14.00;;;8.17;;
38037;SDS011;23843;51.320;12.340;2022-11-20T08:21:00;12.40;;;7.73;;
38037;SDS011;23843;51.320;12.340;2022-11-20T08:23:27;15.43;;;9.00;;
38037;SDS011;23843;51.320;12.340;2022-11-20T08:25:52;15.07;;;9.03;;
38037;SDS011;23843;51.320;12.340;2022-11-20T08:28:18;13.37;;;9.00;;
38037;SDS011;23843;51.320;12.340;2022-11-20T08:30:43;14.73;;;9.20;;
38037;SDS011;23843;51.320;12.340;2022-11-20T08:33:08;13.27;;;8.73;;
38037;SDS011;23843;51.320;12.340;2022-11-20T08:35:34;12.90;;;9.03;;
38037;SDS011;23843;51.320;12.340;2022-11-20T08:38:01;13.37;;;8.37;;
38037;SDS011;23843;51.320;12.340;2022-11-20T08:40:27;11.73;;;7.73;;
38037;SDS011;23843;51.320;12.340;2022-11-20T08:42:52;12.10;;;8.27;;
38037;SDS011;23843;51.320;12.340;2022-11-20T08:45:18;12.73;;;8.07;;
38037;SDS011;23843;51.320;12.340;2022-11-20T08:47:44;12.60;;;8.37;;
38037;SDS011;23843;51.320;12.340;2022-11-20T08:50:10;13.30;;;8.87;;
38037;SDS011;23843;51.320;12.340;2022-11-20T08:52:36;13.33;;;9.27;;
38037;SDS011;23843;51.320;12.340;2022-11-20T08:55:03;13.07;;;8.63;;
38037;SDS011;23843;51.320;12.340;2022-11-20T08:57:31;11.53;;;7.70;;
38037;SDS011;23843;51.320;12.340;2022-11-20T08:59:56;9.60;;;6.43;;
38037;SDS011;23843;51.320;12.340;2022-11-20T09:02:22;8.30;;;5.93;;
38037;SDS011;23843;51.320;12.340;2022-11-20T09:04:47;9.67;;;6.80;;
38037;SDS011;23843;51.320;12.340;2022-11-20T09:07:12;11.17;;;7.20;;
38037;SDS011;23843;51.320;12.340;2022-11-20T09:09:38;12.23;;;7.00;;
38037;SDS011;23843;51.320;12.340;2022-11-20T09:12:05;9.60;;;6.70;;
38037;SDS011;23843;51.320;12.340;2022-11-20T09:14:30;12.53;;;7.77;;
38037;SDS011;23843;51.320;12.340;2022-11-20T09:16:56;10.13;;;6.53;;
38037;SDS011;23843;51.320;12.340;2022-11-20T09:19:21;9.83;;;6.20;;
38037;SDS011;23843;51.320;12.340;2022-11-20T09:21:48;10.03;;;6.27;;
38037;SDS011;23843;51.320;12.340;2022-11-20T09:24:13;10.37;;;6.30;;
38037;SDS011;23843;51.320;12.340;2022-11-20T09:26:39;10.70;;;6.43;;
38037;SDS011;23843;51.320;12.340;2022-11-20T09:29:05;12.13;;;7.23;;
38037;SDS011;23843;51.320;12.340;2022-11-20T09:31:31;10.77;;;6.77;;
38037;SDS011;23843;51.320;12.340;2022-11-20T09:33:57;13.00;;;7.93;;
38037;SDS011;23843;51.320;12.340;2022-11-20T09:36:22;10.67;;;6.63;;
38037;SDS011;23843;51.320;12.340;2022-11-20T09:38:48;9.83;;;6.07;;
38037;SDS011;23843;51.320;12.340;2022-11-20T09:41:19;14.90;;;8.47;;
38037;SDS011;23843;51.320;12.340;2022-11-20T09:44:01;11.30;;;7.30;;
38037;SDS011;23843;51.320;12.340;2022-11-20T09:46:38;11.43;;;7.30;;
38037;SDS011;23843;51.320;12.340;2022-11-20T09:49:15;10.00;;;6.40;;
38037;SDS011;23843;51.320;12.340;2022-11-20T09:51:51;10.67;;;6.47;;
38037;SDS011;23843;51.320;12.340;2022-11-20T09:54:22;9.10;;;5.83;;
38037;SDS011;23843;51.320;12.340;2022-11-20T09:56:53;10.17;;;6.20;;
38037;SDS011;23843;51.320;12.340;2022-11-20T09:59:29;9.87;;;6.10;;
38037;SDS011;23843;51.320;12.340;2022-11-20T10:02:00;12.70;;;7.43;;
38037;SDS011;23843;51.320;12.340;2022-11-20T10:04:27;11.03;;;6.43;;
38037;SDS011;23843;51.320;12.340;2022-11-20T10:07:00;9.97;;;6.60;;
38037;SDS011;23843;51.320;12.340;2022-11-20T10:09:29;10.70;;;6.70;;
38037;SDS011;23843;51.320;12.340;2022-11-20T10:12:03;10.07;;;6.10;;
38037;SDS011;23843;51.320;12.340;2022-11-20T10:14:41;13.13;;;7.00;;
38037;SDS011;23843;51.320;12.340;2022-11-20T10:17:25;12.33;;;7.30;;
38037;SDS011;23843;51.320;12.340;2022-11-20T10:20:06;11.37;;;6.70;;
38037;SDS011;23843;51.320;12.340;2022-11-20T10:22:44;11.23;;;7.03;;
38037;SDS011;23843;51.320;12.340;2022-11-20T10:25:19;9.83;;;5.77;;
38037;SDS011;23843;51.320;12.340;2022-11-20T10:27:49;10.53;;;6.37;;
38037;SDS011;23843;51.320;12.340;2022-11-20T10:30:23;11.90;;;6.47;;
38037;SDS011;23843;51.320;12.340;2022-11-20T10:32:50;12.73;;;7.03;;
38037;SDS011;23843;51.320;12.340;2022-11-20T10:35:20;12.57;;;7.80;;
38037;SDS011;23843;51.320;12.340;2022-11-20T10:37:50;11.47;;;6.70;;
38037;SDS011;23843;51.320;12.340;2022-11-20T10:40:21;10.60;;;6.10;;
38037;SDS011;23843;51.320;12.340;2022-11-20T10:42:53;12.37;;;7.57;;
38037;SDS011;23843;51.320;12.340;2022-11-20T10:45:30;10.53;;;6.83;;
38037;SDS011;23843;51.320;12.340;2022-11-20T10:48:07;10.27;;;6.33;;
38037;SDS011;23843;51.320;12.340;2022-11-20T10:50:37;8.20;;;5.33;;
38037;SDS011;23843;51.320;12.340;2022-11-20T10:53:14;9.03;;;5.80;;
38037;SDS011;23843;51.320;12.340;2022-11-20T10:55:47;8.47;;;5.00;;
38037;SDS011;23843;51.320;12.340;2022-11-20T10:58:20;8.63;;;5.10;;
38037;SDS011;23843;51.320;12.340;2022-11-20T11:00:52;6.63;;;4.20;;
38037;SDS011;23843;51.320;12.340;2022-11-20T11:03:28;7.67;;;4.83;;
38037;SDS011;23843;51.320;12.340;2022-11-20T11:05:58;7.73;;;4.93;;
38037;SDS011;23843;51.320;12.340;2022-11-20T11:08:29;6.70;;;4.63;;
38037;SDS011;23843;51.320;12.340;2022-11-20T11:11:00;10.03;;;6.40;;
38037;SDS011;23843;51.320;12.340;2022-11-20T11:13:32;8.00;;;5.37;;
38037;SDS011;23843;51.320;12.340;2022-11-20T11:15:59;9.13;;;5.30;;
38037;SDS011;23843;51.320;12.340;2022-11-20T11:18:25;9.43;;;5.83;;
38037;SDS011;23843;51.320;12.340;2022-11-20T11:20:53;6.87;;;4.50;;
38037;SDS011;23843;51.320;12.340;2022-11-20T11:23:30;5.17;;;3.67;;
38037;SDS011;23843;51.320;12.340;2022-11-20T11:25:59;5.17;;;3.67;;
38037;SDS011;23843;51.320;12.340;2022-11-20T11:28:26;6.30;;;3.90;;
38037;SDS011;23843;51.320;12.340;2022-11-20T11:30:52;5.23;;;3.63;;
38037;SDS011;23843;51.320;12.340;2022-11-20T11:33:20;5.07;;;3.17;;
38037;SDS011;23843;51.320;12.340;2022-11-20T11:35:47;4.20;;;2.97;;
38037;SDS011;23843;51.320;12.340;2022-11-20T11:38:16;4.50;;;3.07;;
38037;SDS011;23843;51.320;12.340;2022-11-20T11:40:44;2.63;;;1.93;;
38037;SDS011;23843;51.320;12.340;2022-11-20T11:43:17;3.50;;;2.60;;
38037;SDS011;23843;51.320;12.340;2022-11-20T11:45:50;3.70;;;2.60;;
38037;SDS011;23843;51.320;12.340;2022-11-20T11:48:17;5.90;;;3.97;;
38037;SDS011;23843;51.320;12.340;2022-11-20T11:50:47;4.33;;;3.00;;
38037;SDS011;23843;51.320;12.340;2022-11-20T11:53:14;5.97;;;4.00;;
38037;SDS011;23843;51.320;12.340;2022-11-20T11:55:44;6.17;;;3.90;;
38037;SDS011;23843;51.320;12.340;2022-11-20T12:01:07;7.93;;;5.00;;
38037;SDS011;23843;51.320;12.340;2022-11-20T12:03:49;6.63;;;3.80;;
38037;SDS011;23843;51.320;12.340;2022-11-20T12:06:20;4.70;;;2.90;;
38037;SDS011;23843;51.320;12.340;2022-11-20T12:08:47;4.97;;;3.40;;
38037;SDS011;23843;51.320;12.340;2022-11-20T12:11:18;8.13;;;5.20;;
38037;SDS011;23843;51.320;12.340;2022-11-20T12:13:49;5.47;;;3.60;;
38037;SDS011;23843;51.320;12.340;2022-11-20T12:16:19;4.57;;;3.20;;
38037;SDS011;23843;51.320;12.340;2022-11-20T12:18:45;4.80;;;2.97;;
38037;SDS011;23843;51.320;12.340;2022-11-20T12:21:19;3.87;;;2.43;;
38037;SDS011;23843;51.320;12.340;2022-11-20T12:26:57;6.20;;;4.30;;
38037;SDS011;23843;51.320;12.340;2022-11-20T12:29:33;6.00;;;3.63;;
38037;SDS011;23843;51.320;12.340;2022-11-20T12:32:19;8.50;;;5.53;;
38037;SDS011;23843;51.320;12.340;2022-11-20T12:35:04;6.33;;;4.30;;
38037;SDS011;23843;51.320;12.340;2022-11-20T12:37:38;6.10;;;4.20;;
38037;SDS011;23843;51.320;12.340;2022-11-20T12:40:17;7.73;;;4.60;;
38037;SDS011;23843;51.320;12.340;2022-11-20T12:42:55;7.07;;;4.73;;
38037;SDS011;23843;51.320;12.340;2022-11-20T12:45:35;8.37;;;5.27;;
38037;SDS011;23843;51.320;12.340;2022-11-20T12:48:19;6.70;;;4.70;;
38037;SDS011;23843;51.320;12.340;2022-11-20T12:51:09;6.07;;;3.80;;
38037;SDS011;23843;51.320;12.340;2022-11-20T12:53:53;6.33;;;4.30;;
38037;SDS011;23843;51.320;12.340;2022-11-20T12:56:33;6.57;;;4.03;;
38037;SDS011;23843;51.320;12.340;2022-11-20T12:59:10;8.90;;;5.30;;
38037;SDS011;23843;51.320;12.340;2022-11-20T13:01:55;6.37;;;3.83;;
38037;SDS011;23843;51.320;12.340;2022-11-20T13:04:34;5.30;;;3.63;;
38037;SDS011;23843;51.320;12.340;2022-11-20T13:07:11;5.17;;;3.30;;
38037;SDS011;23843;51.320;12.340;2022-11-20T13:09:40;4.03;;;2.80;;
38037;SDS011;23843;51.320;12.340;2022-11-20T13:12:09;3.47;;;2.30;;
38037;SDS011;23843;51.320;12.340;2022-11-20T13:14:40;3.57;;;2.23;;
38037;SDS011;23843;51.320;12.340;2022-11-20T13:17:11;2.97;;;2.10;;
38037;SDS011;23843;51.320;12.340;2022-11-20T13:19:41;5.90;;;3.47;;
38037;SDS011;23843;51.320;12.340;2022-11-20T13:22:07;4.60;;;3.20;;
38037;SDS011;23843;51.320;12.340;2022-11-20T13:24:34;3.67;;;2.40;;
38037;SDS011;23843;51.320;12.340;2022-11-20T13:27:01;3.70;;;2.33;;
38037;SDS011;23843;51.320;12.340;2022-11-20T13:29:28;2.73;;;1.90;;
38037;SDS011;23843;51.320;12.340;2022-11-20T13:32:01;3.13;;;2.03;;
38037;SDS011;23843;51.320;12.340;2022-11-20T13:34:32;3.40;;;2.37;;
38037;SDS011;23843;51.320;12.340;2022-11-20T13:36:59;3.80;;;2.40;;
38037;SDS011;23843;51.320;12.340;2022-11-20T13:39:25;4.70;;;3.00;;
38037;SDS011;23843;51.320;12.340;2022-11-20T13:41:55;4.03;;;2.50;;
38037;SDS011;23843;51.320;12.340;2022-11-20T13:44:23;6.33;;;3.90;;
38037;SDS011;23843;51.320;12.340;2022-11-20T13:46:52;5.20;;;3.50;;
38037;SDS011;23843;51.320;12.340;2022-11-20T13:49:18;5.93;;;3.80;;
38037;SDS011;23843;51.320;12.340;2022-11-20T13:51:58;5.37;;;3.00;;
38037;SDS011;23843;51.320;12.340;2022-11-20T13:54:42;3.80;;;2.57;;
38037;SDS011;23843;51.320;12.340;2022-11-20T13:57:25;4.93;;;2.90;;
38037;SDS011;23843;51.320;12.340;2022-11-20T14:00:09;3.57;;;2.50;;
38037;SDS011;23843;51.320;12.340;2022-11-20T14:02:37;3.20;;;2.23;;
38037;SDS011;23843;51.320;12.340;2022-11-20T14:05:02;3.50;;;2.00;;
38037;SDS011;23843;51.320;12.340;2022-11-20T14:07:34;3.77;;;2.30;;
38037;SDS011;23843;51.320;12.340;2022-11-20T14:10:04;3.43;;;2.10;;
38037;SDS011;23843;51.320;12.340;2022-11-20T14:12:33;5.40;;;3.17;;
38037;SDS011;23843;51.320;12.340;2022-11-20T14:14:59;6.23;;;3.80;;
38037;SDS011;23843;51.320;12.340;2022-11-20T14:17:29;4.30;;;2.83;;
38037;SDS011;23843;51.320;12.340;2022-11-20T14:19:57;5.30;;;3.17;;
38037;SDS011;23843;51.320;12.340;2022-11-20T14:22:26;4.47;;;2.90;;
38037;SDS011;23843;51.320;12.340;2022-11-20T14:25:01;7.03;;;4.10;;
38037;SDS011;23843;51.320;12.340;2022-11-20T14:27:28;6.37;;;3.90;;
38037;SDS011;23843;51.320;12.340;2022-11-20T14:29:55;7.30;;;4.33;;
38037;SDS011;23843;51.320;12.340;2022-11-20T14:32:22;5.30;;;3.27;;
38037;SDS011;23843;51.320;12.340;2022-11-20T14:34:52;6.60;;;4.23;;
38037;SDS011;23843;51.320;12.340;2022-11-20T14:37:18;4.50;;;2.90;;
38037;SDS011;23843;51.320;12.340;2022-11-20T14:39:48;3.67;;;2.63;;
38037;SDS011;23843;51.320;12.340;2022-11-20T14:42:15;3.73;;;2.00;;
38037;SDS011;23843;51.320;12.340;2022-11-20T14:44:42;3.70;;;2.30;;
38037;SDS011;23843;51.320;12.340;2022-11-20T14:47:10;3.03;;;1.80;;
38037;SDS011;23843;51.320;12.340;2022-11-20T14:49:37;3.87;;;2.50;;
38037;SDS011;23843;51.320;12.340;2022-11-20T14:52:11;4.90;;;2.70;;
38037;SDS011;23843;51.320;12.340;2022-11-20T14:54:43;2.80;;;1.80;;
38037;SDS011;23843;51.320;12.340;2022-11-20T14:57:20;4.03;;;2.87;;
38037;SDS011;23843;51.320;12.340;2022-11-20T14:59:47;3.60;;;2.33;;
38037;SDS011;23843;51.320;12.340;2022-11-20T15:02:14;3.83;;;2.07;;
38037;SDS011;23843;51.320;12.340;2022-11-20T15:04:44;3.23;;;2.17;;
38037;SDS011;23843;51.320;12.340;2022-11-20T15:07:10;3.03;;;1.97;;
38037;SDS011;23843;51.320;12.340;2022-11-20T15:09:35;3.67;;;2.63;;
38037;SDS011;23843;51.320;12.340;2022-11-20T15:12:01;3.30;;;2.20;;
38037;SDS011;23843;51.320;12.340;2022-11-20T15:14:28;2.33;;;1.47;;
38037;SDS011;23843;51.320;12.340;2022-11-20T15:16:55;2.57;;;1.73;;
38037;SDS011;23843;51.320;12.340;2022-11-20T15:19:23;2.63;;;1.70;;
38037;SDS011;23843;51.320;12.340;2022-11-20T15:21:50;3.00;;;1.97;;
38037;SDS011;23843;51.320;12.340;2022-11-20T15:24:16;2.23;;;1.63;;
38037;SDS011;23843;51.320;12.340;2022-11-20T15:26:42;2.40;;;1.40;;
38037;SDS011;23843;51.320;12.340;2022-11-20T15:29:08;2.10;;;1.40;;
38037;SDS011;23843;51.320;12.340;2022-11-20T15:31:34;3.47;;;1.53;;
38037;SDS011;23843;51.320;12.340;2022-11-20T15:34:00;1.90;;;1.47;;
38037;SDS011;23843;51.320;12.340;2022-11-20T15:36:26;2.30;;;1.40;;
38037;SDS011;23843;51.320;12.340;2022-11-20T15:38:52;1.53;;;1.17;;
38037;SDS011;23843;51.320;12.340;2022-11-20T15:41:17;2.20;;;1.50;;
38037;SDS011;23843;51.320;12.340;2022-11-20T15:43:43;1.87;;;1.23;;
38037;SDS011;23843;51.320;12.340;2022-11-20T15:46:09;2.60;;;1.77;;
38037;SDS011;23843;51.320;12.340;2022-11-20T15:48:38;2.23;;;1.50;;
38037;SDS011;23843;51.320;12.340;2022-11-20T15:51:06;2.40;;;1.60;;
38037;SDS011;23843;51.320;12.340;2022-11-20T15:53:42;2.13;;;1.33;;
38037;SDS011;23843;51.320;12.340;2022-11-20T15:56:08;2.37;;;1.47;;
38037;SDS011;23843;51.320;12.340;2022-11-20T15:58:36;1.60;;;1.13;;
38037;SDS011;23843;51.320;12.340;2022-11-20T16:01:02;1.50;;;1.07;;
38037;SDS011;23843;51.320;12.340;2022-11-20T16:03:27;1.70;;;1.03;;
38037;SDS011;23843;51.320;12.340;2022-11-20T16:05:53;1.80;;;1.20;;
38037;SDS011;23843;51.320;12.340;2022-11-20T16:08:21;1.90;;;1.37;;
38037;SDS011;23843;51.320;12.340;2022-11-20T16:10:48;2.13;;;1.30;;
38037;SDS011;23843;51.320;12.340;2022-11-20T16:13:14;2.30;;;1.40;;
38037;SDS011;23843;51.320;12.340;2022-11-20T16:15:50;1.87;;;1.30;;
38037;SDS011;23843;51.320;12.340;2022-11-20T16:18:18;2.53;;;1.67;;
38037;SDS011;23843;51.320;12.340;2022-11-20T16:20:47;2.37;;;1.40;;
38037;SDS011;23843;51.320;12.340;2022-11-20T16:23:14;2.53;;;1.60;;
38037;SDS011;23843;51.320;12.340;2022-11-20T16:25:40;2.20;;;1.40;;
38037;SDS011;23843;51.320;12.340;2022-11-20T16:28:06;2.13;;;1.13;;
38037;SDS011;23843;51.320;12.340;2022-11-20T16:30:32;2.13;;;1.30;;
38037;SDS011;23843;51.320;12.340;2022-11-20T16:32:58;2.00;;;1.40;;
38037;SDS011;23843;51.320;12.340;2022-11-20T16:35:25;2.10;;;1.20;;
38037;SDS011;23843;51.320;12.340;2022-11-20T16:37:51;2.30;;;1.40;;
38037;SDS011;23843;51.320;12.340;2022-11-20T16:40:16;1.63;;;1.10;;
38037;SDS011;23843;51.320;12.340;2022-11-20T16:42:41;1.50;;;1.00;;
38037;SDS011;23843;51.320;12.340;2022-11-20T16:45:09;1.20;;;0.80;;
38037;SDS011;23843;51.320;12.340;2022-11-20T16:47:35;1.57;;;1.00;;
38037;SDS011;23843;51.320;12.340;2022-11-20T16:50:01;1.70;;;1.03;;
38037;SDS011;23843;51.320;12.340;2022-11-20T16:52:29;2.57;;;1.30;;
38037;SDS011;23843;51.320;12.340;2022-11-20T16:54:55;1.63;;;1.10;;
38037;SDS011;23843;51.320;12.340;2022-11-20T16:57:20;1.53;;;1.10;;
38037;SDS011;23843;51.320;12.340;2022-11-20T16:59:46;1.70;;;1.30;;
38037;SDS011;23843;51.320;12.340;2022-11-20T17:02:13;2.90;;;1.63;;
38037;SDS011;23843;51.320;12.340;2022-11-20T17:04:39;2.27;;;1.40;;
38037;SDS011;23843;51.320;12.340;2022-11-20T17:07:04;2.87;;;1.60;;
38037;SDS011;23843;51.320;12.340;2022-11-20T17:09:29;2.13;;;1.40;;
38037;SDS011;23843;51.320;12.340;2022-11-20T17:11:55;2.77;;;1.67;;
38037;SDS011;23843;51.320;12.340;2022-11-20T17:14:20;2.27;;;1.60;;
38037;SDS011;23843;51.320;12.340;2022-11-20T17:16:46;2.90;;;1.80;;
38037;SDS011;23843;51.320;12.340;2022-11-20T17:19:13;5.97;;;3.83;;
38037;SDS011;23843;51.320;12.340;2022-11-20T17:21:39;6.87;;;4.33;;
38037;SDS011;23843;51.320;12.340;2022-11-20T17:24:05;7.30;;;4.03;;
38037;SDS011;23843;51.320;12.340;2022-11-20T17:26:32;14.67;;;7.40;;
38037;SDS011;23843;51.320;12.340;2022-11-20T17:28:59;15.30;;;8.70;;
38037;SDS011;23843;51.320;12.340;2022-11-20T17:31:26;16.63;;;9.43;;
38037;SDS011;23843;51.320;12.340;2022-11-20T17:33:52;16.43;;;9.07;;
38037;SDS011;23843;51.320;12.340;2022-11-20T17:36:22;20.70;;;11.60;;
38037;SDS011;23843;51.320;12.340;2022-11-20T17:38:47;19.17;;;10.80;;
38037;SDS011;23843;51.320;12.340;2022-11-20T17:41:13;13.23;;;7.37;;
38037;SDS011;23843;51.320;12.340;2022-11-20T17:43:41;10.43;;;5.80;;
38037;SDS011;23843;51.320;12.340;2022-11-20T17:46:07;8.13;;;4.80;;
38037;SDS011;23843;51.320;12.340;2022-11-20T17:48:34;7.70;;;4.03;;
38037;SDS011;23843;51.320;12.340;2022-11-20T17:51:00;6.23;;;3.33;;
38037;SDS011;23843;51.320;12.340;2022-11-20T17:53:27;5.23;;;3.20;;
38037;SDS011;23843;51.320;12.340;2022-11-20T17:55:56;5.60;;;3.40;;
38037;SDS011;23843;51.320;12.340;2022-11-20T17:58:22;7.97;;;4.20;;
38037;SDS011;23843;51.320;12.340;2022-11-20T18:00:51;6.93;;;3.93;;
38037;SDS011;23843;51.320;12.340;2022-11-20T18:03:16;6.17;;;3.80;;
38037;SDS011;23843;51.320;12.340;2022-11-20T18:05:42;5.23;;;3.17;;
38037;SDS011;23843;51.320;12.340;2022-11-20T18:08:07;6.27;;;3.57;;
38037;SDS011;23843;51.320;12.340;2022-11-20T18:10:34;4.67;;;2.57;;
38037;SDS011;23843;51.320;12.340;2022-11-20T18:12:59;5.13;;;2.80;;
38037;SDS011;23843;51.320;12.340;2022-11-20T18:15:25;4.50;;;2.50;;
38037;SDS011;23843;51.320;12.340;2022-11-20T18:17:50;4.63;;;2.70;;
38037;SDS011;23843;51.320;12.340;2022-11-20T18:20:16;2.93;;;1.97;;
38037;SDS011;23843;51.320;12.340;2022-11-20T18:22:41;5.40;;;2.97;;
38037;SDS011;23843;51.320;12.340;2022-11-20T18:25:07;5.10;;;2.80;;
38037;SDS011;23843;51.320;12.340;2022-11-20T18:27:34;4.33;;;2.40;;
38037;SDS011;23843;51.320;12.340;2022-11-20T18:30:00;4.60;;;2.33;;
38037;SDS011;23843;51.320;12.340;2022-11-20T18:32:25;3.83;;;2.30;;
38037;SDS011;23843;51.320;12.340;2022-11-20T18:34:51;3.73;;;1.90;;
38037;SDS011;23843;51.320;12.340;2022-11-20T18:37:16;2.90;;;1.97;;
38037;SDS011;23843;51.320;12.340;2022-11-20T18:39:42;3.20;;;2.00;;
38037;SDS011;23843;51.320;12.340;2022-11-20T18:42:09;3.40;;;1.80;;
38037;SDS011;23843;51.320;12.340;2022-11-20T18:44:37;3.33;;;1.80;;
38037;SDS011;23843;51.320;12.340;2022-11-20T18:47:03;2.50;;;1.63;;
38037;SDS011;23843;51.320;12.340;2022-11-20T18:49:30;2.20;;;1.50;;
38037;SDS011;23843;51.320;12.340;2022-11-20T18:51:55;4.90;;;2.93;;
38037;SDS011;23843;51.320;12.340;2022-11-20T18:54:20;8.23;;;5.00;;
38037;SDS011;23843;51.320;12.340;2022-11-20T18:56:46;6.87;;;3.83;;
38037;SDS011;23843;51.320;12.340;2022-11-20T18:59:12;5.13;;;2.83;;
38037;SDS011;23843;51.320;12.340;2022-11-20T19:01:40;4.57;;;2.50;;
38037;SDS011;23843;51.320;12.340;2022-11-20T19:04:06;3.40;;;2.20;;
38037;SDS011;23843;51.320;12.340;2022-11-20T19:06:33;4.43;;;2.30;;
38037;SDS011;23843;51.320;12.340;2022-11-20T19:08:58;4.20;;;2.20;;
38037;SDS011;23843;51.320;12.340;2022-11-20T19:11:23;7.07;;;3.63;;
38037;SDS011;23843;51.320;12.340;2022-11-20T19:13:49;9.50;;;4.67;;
38037;SDS011;23843;51.320;12.340;2022-11-20T19:16:15;19.20;;;8.67;;
38037;SDS011;23843;51.320;12.340;2022-11-20T19:18:43;18.80;;;9.57;;
38037;SDS011;23843;51.320;12.340;2022-11-20T19:21:08;20.80;;;9.93;;
38037;SDS011;23843;51.320;12.340;2022-11-20T19:23:35;18.00;;;9.30;;
38037;SDS011;23843;51.320;12.340;2022-11-20T19:26:00;18.63;;;10.07;;
38037;SDS011;23843;51.320;12.340;2022-11-20T19:28:26;14.10;;;7.53;;
38037;SDS011;23843;51.320;12.340;2022-11-20T19:30:51;31.67;;;12.70;;
38037;SDS011;23843;51.320;12.340;2022-11-20T19:33:17;31.27;;;11.90;;
38037;SDS011;23843;51.320;12.340;2022-11-20T19:35:44;23.43;;;8.90;;
38037;SDS011;23843;51.320;12.340;2022-11-20T19:38:09;16.07;;;7.07;;
38037;SDS011;23843;51.320;12.340;2022-11-20T19:40:35;15.17;;;7.10;;
38037;SDS011;23843;51.320;12.340;2022-11-20T19:43:00;11.13;;;5.30;;
38037;SDS011;23843;51.320;12.340;2022-11-20T19:45:25;22.03;;;8.87;;
38037;SDS011;23843;51.320;12.340;2022-11-20T19:47:51;38.37;;;14.37;;
38037;SDS011;23843;51.320;12.340;2022-11-20T19:50:17;30.47;;;12.77;;
38037;SDS011;23843;51.320;12.340;2022-11-20T19:52:43;36.03;;;12.60;;
38037;SDS011;23843;51.320;12.340;2022-11-20T19:55:09;30.40;;;13.00;;
38037;SDS011;23843;51.320;12.340;2022-11-20T19:57:34;17.73;;;8.90;;
38037;SDS011;23843;51.320;12.340;2022-11-20T20:00:00;15.43;;;7.60;;
38037;SDS011;23843;51.320;12.340;2022-11-20T20:02:25;15.10;;;7.47;;
38037;SDS011;23843;51.320;12.340;2022-11-20T20:04:51;14.83;;;8.50;;
38037;SDS011;23843;51.320;12.340;2022-11-20T20:07:16;14.17;;;8.10;;
38037;SDS011;23843;51.320;12.340;2022-11-20T20:09:43;17.63;;;9.67;;
38037;SDS011;23843;51.320;12.340;2022-11-20T20:12:08;13.90;;;8.30;;